Time;durP1;ratioP1;P1;durP2;ratioP2;P2;SDS_P1;SDS_P2;PMS_P1;PMS_P2;Temp;Humidity;BMP_temperature;BMP_pressure;BME280_temperature;BME280_humidity;BME280_pressure;Samples;Min_cycle;Max_cycle;Signal;HPM_P1;HPM_P2
2022/05/17 00:01:37;;;;;;;7.80;3.40;;;;;;;12.56;70.19;101153.97;104831;1280;61354;-72
2022/05/17 00:04:06;;;;;;;6.90;4.00;;;;;;;12.49;70.41;101152.04;104828;1279;72532;-71
2022/05/17 00:06:35;;;;;;;8.50;3.70;;;;;;;12.46;72.07;101152.60;104871;1280;69796;-69
2022/05/17 00:09:05;;;;;;;7.90;3.70;;;;;;;12.47;72.74;101150.60;104756;1280;69860;-68
2022/05/17 00:11:34;;;;;;;5.90;3.50;;;;;;;12.53;72.52;101154.16;104750;1279;72569;-68
2022/05/17 00:14:04;;;;;;;8.40;3.60;;;;;;;12.61;72.20;101150.61;104634;1279;61917;-70
2022/05/17 00:16:33;;;;;;;6.30;4.00;;;;;;;12.69;71.92;101144.77;104853;1280;59182;-72
2022/05/17 00:19:03;;;;;;;9.60;4.00;;;;;;;12.77;71.67;101138.90;104848;1280;73143;-69
2022/05/17 00:21:32;;;;;;;7.30;3.50;;;;;;;12.83;70.30;101134.65;104861;1279;72338;-69
2022/05/17 00:24:02;;;;;;;7.30;3.70;;;;;;;12.84;69.85;101134.70;104845;1278;71098;-68
2022/05/17 00:26:34;;;;;;;6.40;3.30;;;;;;;12.88;69.90;101135.45;104826;1280;73966;-69
2022/05/17 00:29:05;;;;;;;7.70;3.70;;;;;;;12.88;70.03;101137.71;104864;1279;60297;-67
2022/05/17 00:31:34;;;;;;;6.00;4.10;;;;;;;12.89;70.30;101142.73;104849;1280;60455;-71
2022/05/17 00:34:04;;;;;;;10.40;4.00;;;;;;;12.92;69.69;101141.30;104892;1280;72724;-72
2022/05/17 00:36:34;;;;;;;7.80;4.30;;;;;;;12.92;70.13;101138.83;104854;1278;70742;-71
2022/05/17 00:39:04;;;;;;;8.50;4.70;;;;;;;12.88;71.25;101133.39;104889;1279;70056;-70
2022/05/17 00:41:33;;;;;;;8.20;4.10;;;;;;;12.94;71.39;101139.91;104983;1278;73234;-69
2022/05/17 00:47:17;;;;;;;7.40;3.80;;;;;;;12.97;71.19;101126.21;104907;1280;59617;-69
2022/05/17 00:50:07;;;;;;;5.30;3.50;;;;;;;12.97;71.40;101123.43;104945;1280;74097;-70
2022/05/17 00:52:49;;;;;;;7.10;3.50;;;;;;;12.98;71.22;101118.79;104918;1279;71061;-70
2022/05/17 00:56:06;;;;;;;7.50;3.40;;;;;;;12.95;71.43;101116.42;104993;1279;71339;-68
2022/05/17 00:58:56;;;;;;;7.90;3.90;;;;;;;12.87;71.56;101115.80;104812;1279;73094;-70
2022/05/17 01:01:30;;;;;;;7.00;3.90;;;;;;;12.83;71.72;101113.46;104853;1280;62224;-69
2022/05/17 01:04:09;;;;;;;11.10;4.10;;;;;;;12.80;71.58;101111.27;104913;1279;60883;-71
2022/05/17 01:07:00;;;;;;;7.40;3.80;;;;;;;12.72;71.43;101108.50;104738;1280;70986;-68
2022/05/17 01:09:29;;;;;;;6.80;4.30;;;;;;;12.62;71.84;101108.76;104890;1279;71348;-68
2022/05/17 01:11:58;;;;;;;9.70;3.90;;;;;;;12.54;72.36;101106.36;104903;1279;68980;-70
2022/05/17 01:17:15;;;;;;;8.30;4.00;;;;;;;12.47;71.66;101103.41;104803;1280;60924;-71
2022/05/17 01:19:44;;;;;;;6.30;3.60;;;;;;;12.41;72.67;101104.73;104892;1279;60696;-69
2022/05/17 01:22:13;;;;;;;7.80;4.20;;;;;;;12.36;73.44;101112.98;104962;1279;71695;-72
2022/05/17 01:24:42;;;;;;;12.40;3.90;;;;;;;12.32;73.56;101117.11;104930;1279;70051;-72
2022/05/17 01:27:43;;;;;;;9.70;4.20;;;;;;;12.25;73.56;101118.13;104957;1279;69883;-72
2022/05/17 01:30:24;;;;;;;7.60;4.30;;;;;;;12.13;74.22;101124.74;104921;1279;71755;-71
2022/05/17 01:32:53;;;;;;;8.10;4.00;;;;;;;12.13;74.50;101124.03;104897;1279;60893;-70
2022/05/17 01:35:23;;;;;;;6.90;3.90;;;;;;;12.15;74.37;101126.39;104863;1280;59297;-71
2022/05/17 01:37:56;;;;;;;5.50;3.60;;;;;;;12.11;74.25;101125.23;105024;1276;71833;-67
2022/05/17 01:40:26;;;;;;;6.10;3.60;;;;;;;12.06;73.94;101126.37;105019;1276;72413;-69
2022/05/17 01:42:55;;;;;;;6.80;3.80;;;;;;;11.95;74.74;101123.25;105052;1276;69494;-68
2022/05/17 01:45:24;;;;;;;7.00;3.90;;;;;;;11.87;74.52;101126.05;105000;1276;71804;-67
2022/05/17 01:47:54;;;;;;;6.50;4.00;;;;;;;11.81;75.72;101130.17;104991;1276;61368;-66
2022/05/17 01:50:23;;;;;;;7.30;4.00;;;;;;;11.74;74.91;101122.83;105084;1276;59480;-67
2022/05/17 01:52:52;;;;;;;7.20;4.40;;;;;;;11.63;74.94;101115.88;105177;1276;71878;-69
2022/05/17 01:55:21;;;;;;;7.80;3.60;;;;;;;11.55;76.68;101115.92;105162;1276;70647;-69
2022/05/17 01:57:50;;;;;;;8.20;3.80;;;;;;;11.50;76.15;101114.71;105265;1276;68991;-69
2022/05/17 02:00:22;;;;;;;6.40;3.60;;;;;;;11.43;75.59;101115.75;105234;1276;72230;-69
2022/05/17 02:02:52;;;;;;;9.40;3.50;;;;;;;11.34;74.54;101111.32;105305;1276;63112;-68
2022/05/17 02:05:24;;;;;;;7.00;3.80;;;;;;;11.21;73.69;101110.27;105326;1276;59886;-69
2022/05/17 02:07:53;;;;;;;5.80;3.60;;;;;;;11.09;73.90;101114.42;105304;1276;72988;-69
2022/05/17 02:10:25;;;;;;;8.90;4.20;;;;;;;10.99;74.42;101110.93;105133;1276;70090;-69
2022/05/17 02:12:58;;;;;;;8.60;3.70;;;;;;;10.94;75.96;101111.73;105179;1276;68594;-72
2022/05/17 02:15:27;;;;;;;9.90;4.60;;;;;;;10.94;75.54;101111.45;105133;1277;72130;-69
2022/05/17 02:17:57;;;;;;;9.20;4.40;;;;;;;10.93;76.78;101119.16;105143;1276;63611;-69
2022/05/17 02:20:26;;;;;;;7.40;4.60;;;;;;;10.94;76.43;101119.23;105122;1276;61912;-71
2022/05/17 02:22:59;;;;;;;8.00;4.60;;;;;;;10.95;77.26;101117.48;105007;1276;72040;-69
2022/05/17 02:25:28;;;;;;;8.70;4.10;;;;;;;10.96;77.00;101121.23;105019;1276;70860;-69
2022/05/17 02:27:58;;;;;;;7.20;4.70;;;;;;;10.93;75.72;101124.89;105042;1276;68093;-70
2022/05/17 02:30:27;;;;;;;9.20;4.10;;;;;;;10.84;74.91;101124.80;104960;1276;72703;-69
2022/05/17 02:32:56;;;;;;;10.80;4.40;;;;;;;10.76;75.36;101131.64;105006;1276;61276;-71
2022/05/17 02:35:25;;;;;;;8.90;4.60;;;;;;;10.75;78.15;101131.13;104974;1276;60059;-71
2022/05/17 02:37:54;;;;;;;6.80;4.40;;;;;;;10.80;78.76;101132.03;104957;1279;71538;-68
2022/05/17 02:40:23;;;;;;;8.90;4.40;;;;;;;10.89;78.69;101128.45;105012;1276;72408;-72
2022/05/17 02:42:51;;;;;;;9.40;4.50;;;;;;;11.02;78.51;101122.42;104989;1276;70411;-72
2022/05/17 02:45:20;;;;;;;7.50;4.30;;;;;;;11.09;78.31;101121.89;105089;1276;74375;-70
2022/05/17 02:47:52;;;;;;;10.10;4.50;;;;;;;11.21;78.00;101126.48;105037;1276;62197;-72
2022/05/17 02:50:21;;;;;;;8.20;4.50;;;;;;;11.34;77.46;101126.48;105011;1276;62285;-69
2022/05/17 02:52:50;;;;;;;10.70;5.50;;;;;;;11.39;77.31;101126.25;105080;1276;72332;-71
2022/05/17 02:55:19;;;;;;;8.60;4.80;;;;;;;11.49;77.13;101129.27;105022;1276;72866;-67
2022/05/17 02:57:49;;;;;;;10.10;5.10;;;;;;;11.57;76.57;101130.10;104980;1277;70362;-69
2022/05/17 03:00:18;;;;;;;9.20;5.10;;;;;;;11.66;76.32;101129.45;104996;1276;74491;-69
2022/05/17 03:02:47;;;;;;;7.50;4.30;;;;;;;11.72;76.18;101129.95;105054;1279;63980;-71
2022/05/17 03:05:15;;;;;;;11.50;5.10;;;;;;;11.75;75.77;101129.05;105068;1279;61362;-72
2022/05/17 03:07:45;;;;;;;10.40;4.60;;;;;;;11.76;75.86;101123.19;105211;1276;72547;-73
2022/05/17 03:10:14;;;;;;;9.00;4.60;;;;;;;11.76;75.90;101125.61;105064;1277;70531;-72
2022/05/17 03:12:44;;;;;;;10.20;4.70;;;;;;;11.80;76.03;101116.28;105001;1276;68056;-70
2022/05/17 03:15:21;;;;;;;8.20;5.30;;;;;;;11.87;75.59;101111.39;104938;1279;72484;-71
2022/05/17 03:17:50;;;;;;;9.90;5.30;;;;;;;11.96;75.55;101113.06;104968;1279;61629;-71
2022/05/17 03:20:19;;;;;;;11.20;6.20;;;;;;;12.06;75.25;101116.39;104829;1279;59404;-72
2022/05/17 03:22:48;;;;;;;10.60;5.50;;;;;;;12.15;74.96;101124.80;104948;1276;72959;-70
2022/05/17 03:25:17;;;;;;;9.00;5.20;;;;;;;12.19;74.38;101127.47;104911;1276;71555;-70
2022/05/17 03:27:54;;;;;;;10.90;5.50;;;;;;;12.19;74.97;101126.41;104924;1276;70354;-71
2022/05/17 03:30:23;;;;;;;7.80;4.60;;;;;;;12.26;75.33;101127.34;104971;1276;71495;-71
2022/05/17 03:32:52;;;;;;;14.90;7.90;;;;;;;12.33;74.89;101129.60;104997;1276;63558;-71
2022/05/17 03:35:22;;;;;;;16.30;6.00;;;;;;;12.40;74.70;101130.26;105059;1276;59458;-70
2022/05/17 03:37:52;;;;;;;9.80;5.70;;;;;;;12.50;74.52;101132.39;105202;1276;73070;-76
2022/05/17 03:40:21;;;;;;;11.50;5.60;;;;;;;12.53;74.56;101133.05;105328;1276;71848;-71
2022/05/17 03:42:49;;;;;;;10.50;5.70;;;;;;;12.63;74.26;101128.27;105290;1276;71589;-73
2022/05/17 03:45:18;;;;;;;8.80;5.20;;;;;;;12.71;73.62;101129.23;105006;1276;73565;-72
2022/05/17 03:47:48;;;;;;;11.40;6.50;;;;;;;12.77;73.59;101124.60;105035;1276;61673;-69
2022/05/17 03:50:18;;;;;;;10.70;5.70;;;;;;;12.84;73.29;101128.25;105058;1277;60214;-71
2022/05/17 03:52:47;;;;;;;11.80;6.50;;;;;;;12.89;72.67;101122.24;105065;1276;75029;-72
2022/05/17 03:55:16;;;;;;;14.40;6.90;;;;;;;12.94;71.96;101125.95;105118;1276;70705;-75
2022/05/17 03:57:45;;;;;;;10.80;6.20;;;;;;;12.94;71.65;101126.09;105257;1276;68086;-71
2022/05/17 04:00:15;;;;;;;17.70;6.70;;;;;;;12.92;71.34;101131.64;105167;1276;73244;-73
2022/05/17 04:02:44;;;;;;;12.90;5.90;;;;;;;12.98;72.60;101132.47;105249;1276;59622;-73
2022/05/17 04:05:13;;;;;;;18.10;6.80;;;;;;;13.05;72.08;101138.23;105130;1277;59871;-74
2022/05/17 04:07:43;;;;;;;12.80;6.60;;;;;;;13.10;71.31;101135.36;105249;1277;73726;-76
2022/05/17 04:10:14;;;;;;;15.10;6.70;;;;;;;13.15;70.64;101132.50;105121;1276;70125;-75
2022/05/17 04:12:44;;;;;;;12.50;7.20;;;;;;;13.14;70.53;101133.54;105241;1276;68866;-76
2022/05/17 04:15:21;;;;;;;13.90;7.00;;;;;;;13.12;70.48;101131.20;105197;1276;72880;-75
2022/05/17 04:17:51;;;;;;;21.70;7.70;;;;;;;13.18;70.00;101129.32;105535;1276;64122;-79
2022/05/17 04:20:20;;;;;;;14.80;7.30;;;;;;;13.25;69.92;101130.89;105817;1276;60487;-79
2022/05/17 04:22:52;;;;;;;12.80;6.70;;;;;;;13.24;70.16;101129.73;105782;1276;69940;-77
2022/05/17 04:25:24;;;;;;;16.50;8.80;;;;;;;13.30;69.64;101119.54;105266;1276;72755;-77
2022/05/17 04:27:55;;;;;;;13.70;7.50;;;;;;;13.43;69.11;101122.17;105796;1276;68814;-74
2022/05/17 04:30:25;;;;;;;15.80;7.20;;;;;;;13.44;68.92;101124.59;105685;1276;71303;-75
2022/05/17 04:32:53;;;;;;;13.40;7.10;;;;;;;13.42;68.66;101124.73;105269;1276;62142;-78
2022/05/17 04:35:22;;;;;;;14.30;6.40;;;;;;;13.44;68.35;101121.59;105351;1276;61246;-75
2022/05/17 04:37:52;;;;;;;10.70;5.80;;;;;;;13.49;67.25;101124.65;105277;1276;71952;-75
2022/05/17 04:40:21;;;;;;;10.20;5.30;;;;;;;13.55;66.68;101128.95;105495;1276;72829;-76
2022/05/17 04:42:53;;;;;;;14.40;6.10;;;;;;;13.53;66.18;101128.91;105446;1276;69937;-74
2022/05/17 04:45:23;;;;;;;12.00;6.10;;;;;;;13.49;66.44;101131.69;105445;1276;72858;-75
2022/05/17 04:47:53;;;;;;;14.40;7.50;;;;;;;13.57;66.20;101132.17;105183;1277;59153;-70
2022/05/17 04:50:22;;;;;;;12.70;4.60;;;;;;;13.58;65.98;101131.16;105458;1276;60525;-70
2022/05/17 04:52:50;;;;;;;10.70;5.70;;;;;;;13.63;65.69;101127.86;105124;1276;73612;-69
2022/05/17 04:55:21;;;;;;;8.80;5.00;;;;;;;13.70;65.94;101127.23;105040;1276;72759;-69
2022/05/17 04:57:50;;;;;;;10.10;5.30;;;;;;;13.80;65.79;101129.64;105956;1276;71721;-73
2022/05/17 05:00:23;;;;;;;9.40;5.50;;;;;;;13.89;65.16;101127.17;105137;1276;75229;-70
2022/05/17 05:02:53;;;;;;;10.30;5.10;;;;;;;13.91;65.14;101132.94;105150;1275;61947;-70
2022/05/17 05:05:23;;;;;;;10.50;4.80;;;;;;;13.96;64.78;101135.20;105071;1276;61446;-71
2022/05/17 05:07:52;;;;;;;12.90;6.00;;;;;;;13.98;64.91;101135.21;104997;1279;71678;-70
2022/05/17 05:10:22;;;;;;;11.80;6.30;;;;;;;13.98;65.10;101132.58;105013;1276;70794;-68
2022/05/17 05:12:51;;;;;;;14.20;5.90;;;;;;;14.03;65.09;101135.27;105249;1275;68918;-80
2022/05/17 05:15:20;;;;;;;10.80;5.70;;;;;;;14.13;65.38;101133.64;105566;1276;74475;-77
2022/05/17 05:17:50;;;;;;;13.40;6.60;;;;;;;14.23;65.91;101134.55;105443;1276;62593;-77
2022/05/17 05:20:18;;;;;;;15.90;5.70;;;;;;;14.28;65.89;101131.36;105759;1278;61120;-76
2022/05/17 05:22:47;;;;;;;12.50;5.70;;;;;;;14.40;65.37;101132.10;106393;1276;72480;-76
2022/05/17 05:25:16;;;;;;;17.30;6.50;;;;;;;14.49;65.50;101132.06;106107;1277;69767;-76
2022/05/17 05:27:45;;;;;;;18.30;7.70;;;;;;;14.54;65.60;101132.36;105910;1276;69990;-78
2022/05/17 05:30:18;;;;;;;8.90;5.50;;;;;;;14.64;65.35;101129.81;106000;1276;73078;-79
2022/05/17 05:32:48;;;;;;;10.70;6.00;;;;;;;14.80;64.49;101132.70;106014;1276;60679;-77
2022/05/17 05:35:20;;;;;;;16.90;5.70;;;;;;;14.97;63.12;101132.36;106067;1275;61151;-76
2022/05/17 05:37:50;;;;;;;14.50;6.10;;;;;;;15.11;61.87;101131.17;105814;1276;74285;-78
2022/05/17 05:40:20;;;;;;;12.10;5.30;;;;;;;15.24;61.32;101127.09;105881;1276;71494;-77
2022/05/17 05:42:50;;;;;;;8.50;5.10;;;;;;;15.37;60.39;101120.83;105853;1277;68091;-79
2022/05/17 05:45:20;;;;;;;15.50;6.10;;;;;;;15.53;60.81;101125.09;105814;1276;74635;-78
2022/05/17 05:47:50;;;;;;;10.50;5.90;;;;;;;15.65;60.11;101124.96;105733;1278;60202;-78
2022/05/17 05:50:20;;;;;;;13.30;5.90;;;;;;;15.70;59.17;101125.20;105674;1276;59978;-77
2022/05/17 05:52:49;;;;;;;8.50;5.50;;;;;;;15.75;59.53;101127.77;105721;1276;75348;-76
2022/05/17 05:55:22;;;;;;;12.10;5.50;;;;;;;15.90;58.48;101126.45;105665;1276;71964;-77
2022/05/17 05:57:51;;;;;;;14.30;6.20;;;;;;;15.98;58.45;101126.48;105621;1278;68757;-77
2022/05/17 06:00:21;;;;;;;11.80;5.30;;;;;;;16.12;58.04;101127.48;105739;1276;73307;-78
2022/05/17 06:02:51;;;;;;;12.20;5.60;;;;;;;16.25;57.65;101129.86;105807;1279;59814;-78
2022/05/17 06:05:22;;;;;;;12.20;5.40;;;;;;;16.31;56.41;101124.90;106016;1276;60609;-78
2022/05/17 06:07:52;;;;;;;9.10;5.10;;;;;;;16.45;56.95;101126.14;106080;1276;72361;-78
2022/05/17 06:10:22;;;;;;;9.20;5.20;;;;;;;16.60;55.98;101114.58;106095;1276;71678;-79
2022/05/17 06:12:51;;;;;;;12.80;5.10;;;;;;;16.72;54.90;101113.31;106064;1278;68941;-78
2022/05/17 06:15:20;;;;;;;10.30;5.10;;;;;;;16.81;53.74;101114.02;106116;1276;74115;-75
2022/05/17 06:17:50;;;;;;;10.90;4.80;;;;;;;16.88;53.66;101113.88;106122;1276;61056;-79
2022/05/17 06:20:19;;;;;;;14.30;4.70;;;;;;;16.99;52.21;101118.70;105936;1276;61032;-78
2022/05/17 06:22:47;;;;;;;10.70;4.80;;;;;;;17.01;52.49;101119.92;105803;1279;73576;-78
2022/05/17 06:25:18;;;;;;;10.00;4.80;;;;;;;17.05;53.29;101118.69;105845;1276;70398;-77
2022/05/17 06:27:47;;;;;;;10.70;4.80;;;;;;;17.29;52.06;101114.14;105793;1279;68101;-75
2022/05/17 06:30:17;;;;;;;7.70;3.90;;;;;;;17.41;52.28;101108.94;105867;1277;72138;-79
2022/05/17 06:32:46;;;;;;;10.50;4.60;;;;;;;17.60;50.97;101112.54;105673;1276;61267;-78
2022/05/17 06:35:15;;;;;;;11.70;4.80;;;;;;;17.72;50.43;101110.92;105644;1276;60559;-78
2022/05/17 06:37:46;;;;;;;7.60;4.50;;;;;;;17.81;50.73;101106.58;105825;1276;72595;-76
2022/05/17 06:40:15;;;;;;;13.40;5.30;;;;;;;17.96;50.95;101103.17;105777;1278;69727;-80
2022/05/17 06:42:44;;;;;;;13.20;4.80;;;;;;;17.99;51.38;101104.98;105837;1279;69854;-77
2022/05/17 06:45:14;;;;;;;16.00;5.70;;;;;;;18.10;50.84;101109.53;106212;1276;74258;-79
2022/05/17 06:47:44;;;;;;;6.90;3.70;;;;;;;18.23;50.12;101106.98;105952;1277;59588;-77
2022/05/17 06:50:13;;;;;;;39.70;15.80;;;;;;;18.34;49.05;101110.05;105850;1276;60658;-77
2022/05/17 06:52:44;;;;;;;7.80;4.20;;;;;;;18.29;49.38;101106.61;106052;1276;74351;-81
2022/05/17 06:55:13;;;;;;;8.50;4.60;;;;;;;18.39;49.63;101110.05;105877;1278;72128;-78
2022/05/17 06:57:43;;;;;;;8.50;4.30;;;;;;;18.53;49.39;101111.11;106044;1276;59797;-76
2022/05/17 07:00:14;;;;;;;10.10;4.30;;;;;;;18.67;49.24;101108.79;106038;1279;62540;-77
2022/05/17 07:02:43;;;;;;;13.40;5.00;;;;;;;18.85;48.68;101107.95;106296;1276;59426;-78
2022/05/17 07:05:13;;;;;;;13.50;4.60;;;;;;;18.98;48.58;101103.96;106378;1276;60659;-77
2022/05/17 07:07:42;;;;;;;13.70;4.60;;;;;;;19.17;47.47;101102.48;106469;1276;74259;-80
2022/05/17 07:13:09;;;;;;;10.40;4.10;;;;;;;19.42;47.26;101096.44;106406;1277;59693;-78
2022/05/17 07:15:42;;;;;;;10.50;3.90;;;;;;;19.62;45.26;101096.67;106116;1276;74477;-79
2022/05/17 07:18:14;;;;;;;9.20;3.90;;;;;;;19.58;45.94;101090.89;106447;1276;59681;-78
2022/05/17 07:20:44;;;;;;;14.00;3.90;;;;;;;19.62;45.99;101085.56;106390;1276;58293;-78
2022/05/17 07:23:15;;;;;;;8.70;4.10;;;;;;;19.71;46.15;101085.66;106596;1276;63101;-78
2022/05/17 07:25:46;;;;;;;7.60;3.30;;;;;;;19.90;45.24;101080.24;106511;1276;71676;-79
2022/05/17 07:28:18;;;;;;;7.80;3.80;;;;;;;20.06;44.28;101078.37;106568;1276;70582;-79
2022/05/17 07:30:47;;;;;;;7.40;3.80;;;;;;;20.13;44.91;101078.66;106346;1276;74636;-78
2022/05/17 07:33:17;;;;;;;8.40;3.60;;;;;;;20.21;45.41;101082.10;106464;1276;59227;-76
2022/05/17 07:35:48;;;;;;;10.40;4.10;;;;;;;20.33;44.78;101076.68;106283;1276;59731;-76
2022/05/17 07:38:18;;;;;;;8.40;3.40;;;;;;;20.47;44.07;101070.40;106428;1276;73729;-79
2022/05/17 07:40:47;;;;;;;11.60;3.90;;;;;;;20.62;42.92;101063.30;106475;1276;70756;-79
2022/05/17 07:43:17;;;;;;;7.40;3.10;;;;;;;20.60;42.67;101063.49;106607;1276;59226;-79
2022/05/17 07:45:51;;;;;;;5.00;2.70;;;;;;;20.61;43.38;101067.06;106367;1276;64532;-77
2022/05/17 07:48:25;;;;;;;6.70;3.50;;;;;;;20.74;42.51;101070.28;106677;1276;59642;-77
2022/05/17 07:50:54;;;;;;;9.00;3.40;;;;;;;20.73;42.55;101072.54;106551;1276;61806;-77
2022/05/17 07:53:23;;;;;;;7.30;3.10;;;;;;;20.78;42.58;101070.80;106533;1276;63715;-77
2022/05/17 07:55:52;;;;;;;6.90;2.90;;;;;;;20.88;42.35;101070.54;106451;1276;61772;-77
2022/05/17 07:58:21;;;;;;;8.20;2.80;;;;;;;21.05;42.44;101070.58;106732;1276;68416;-79
2022/05/17 08:00:52;;;;;;;7.80;2.60;;;;;;;21.23;40.94;101069.79;106676;1276;64139;-77
2022/05/17 08:03:22;;;;;;;6.60;2.70;;;;;;;21.34;39.69;101065.13;106534;1276;58318;-78
2022/05/17 08:05:52;;;;;;;7.10;2.80;;;;;;;21.46;39.75;101066.60;106224;1276;633994;-79
2022/05/17 08:08:21;;;;;;;4.50;2.10;;;;;;;21.49;39.28;101062.37;106624;1276;75222;-77
2022/05/17 08:10:52;;;;;;;5.40;2.20;;;;;;;21.66;38.15;101066.11;106397;1276;71460;-79
2022/05/17 08:13:24;;;;;;;5.30;2.20;;;;;;;21.76;37.60;101055.50;106470;1276;69286;-78
2022/05/17 08:15:53;;;;;;;5.70;2.40;;;;;;;21.84;37.23;101051.81;106316;1276;74475;-80
2022/05/17 08:18:22;;;;;;;7.70;3.50;;;;;;;21.84;37.41;101050.88;106724;1276;61761;-78
2022/05/17 08:20:50;;;;;;;11.70;3.00;;;;;;;21.90;37.70;101048.77;106729;1276;60288;-78
2022/05/17 08:23:19;;;;;;;6.10;2.00;;;;;;;21.90;38.02;101043.95;106719;1276;63685;-79
2022/05/17 08:29:04;;;;;;;12.10;2.60;;;;;;;22.09;36.73;101045.61;106452;1276;69907;-79
2022/05/17 08:31:32;;;;;;;7.10;2.30;;;;;;;22.16;36.72;101041.92;106266;1276;74013;-78
2022/05/17 08:34:01;;;;;;;5.90;2.50;;;;;;;22.28;36.19;101040.55;106477;1279;58225;-79
2022/05/17 08:36:30;;;;;;;5.80;2.10;;;;;;;22.40;35.96;101036.45;106518;1276;58423;-79
2022/05/17 08:38:59;;;;;;;7.60;2.30;;;;;;;22.57;35.34;101035.30;106220;1278;63107;-79
2022/05/17 08:41:57;;;;;;;5.40;2.10;;;;;;;22.58;35.11;101032.91;106295;1276;70535;-78
2022/05/17 08:44:51;;;;;;;4.50;2.10;;;;;;;22.77;35.29;101029.92;106423;1276;69767;-79
2022/05/17 08:47:51;;;;;;;6.70;2.00;;;;;;;22.88;34.61;101033.71;106489;1276;63646;-78
2022/05/17 08:50:37;;;;;;;6.40;2.00;;;;;;;22.84;34.58;101032.48;106385;1276;61957;-78
2022/05/17 08:53:13;;;;;;;3.40;2.00;;;;;;;22.90;34.23;101028.88;106467;1276;60526;-76
2022/05/17 08:55:43;;;;;;;5.00;1.90;;;;;;;23.01;34.30;101021.33;106506;1276;74557;-78
2022/05/17 08:58:30;;;;;;;3.80;1.90;;;;;;;23.04;33.53;101021.44;106565;1276;71657;-81
2022/05/17 09:01:05;;;;;;;5.30;2.10;;;;;;;23.13;33.14;101019.58;106295;1276;59831;-77
2022/05/17 09:04:04;;;;;;;4.90;2.10;;;;;;;23.08;33.23;101017.91;106317;1276;71322;-78
2022/05/17 09:07:05;;;;;;;6.10;2.70;;;;;;;23.12;32.42;101011.83;106233;1276;60679;-78
2022/05/17 09:10:10;;;;;;;3.50;1.70;;;;;;;23.34;32.10;101014.19;106149;1276;59141;-77
2022/05/17 09:13:00;;;;;;;4.20;1.90;;;;;;;23.44;30.47;101010.63;106558;1276;73740;-80
2022/05/17 09:15:28;;;;;;;6.20;2.30;;;;;;;23.38;31.45;101013.50;106666;1276;72350;-78
2022/05/17 09:18:07;;;;;;;4.40;1.70;;;;;;;23.58;31.88;101004.42;106652;1276;71327;-79
2022/05/17 09:20:39;;;;;;;6.20;2.20;;;;;;;23.67;31.99;101003.44;106368;1277;73951;-77
2022/05/17 09:23:09;;;;;;;6.30;2.30;;;;;;;23.61;31.71;101000.40;106787;1276;58092;-78
2022/05/17 09:25:58;;;;;;;4.90;1.80;;;;;;;23.69;31.67;101001.14;106549;1277;61556;-79
2022/05/17 09:28:55;;;;;;;5.80;2.30;;;;;;;23.83;31.62;101001.79;106692;1276;74273;-79
2022/05/17 09:31:29;;;;;;;5.90;2.00;;;;;;;23.79;31.48;101001.58;106478;1276;61539;-76
2022/05/17 09:34:04;;;;;;;6.00;2.40;;;;;;;23.53;31.58;100992.30;106544;1276;70721;-79
2022/05/17 09:36:49;;;;;;;5.10;2.20;;;;;;;23.23;31.37;100987.73;106599;1279;63002;-77
2022/05/17 09:39:29;;;;;;;5.40;2.10;;;;;;;23.59;31.49;100987.94;106758;1276;59775;-79
2022/05/17 09:42:04;;;;;;;5.10;2.00;;;;;;;23.84;31.04;100986.39;106579;1277;61483;-79
2022/05/17 09:44:44;;;;;;;6.60;1.90;;;;;;;23.84;31.39;100987.09;106444;1279;63579;-78
2022/05/17 09:47:41;;;;;;;11.50;2.00;;;;;;;23.92;31.58;100977.81;106666;1276;61858;-78
2022/05/17 09:53:14;;;;;;;3.80;1.90;;;;;;;23.75;30.86;100966.30;106877;1276;74114;-81
2022/05/17 09:55:56;;;;;;;6.40;2.10;;;;;;;24.00;31.17;100968.54;106863;1276;61013;-78
2022/05/17 09:58:33;;;;;;;5.60;2.20;;;;;;;24.08;31.29;100970.45;106927;1277;59581;-77
2022/05/17 10:01:37;;;;;;;5.90;1.90;;;;;;;24.15;31.23;100964.06;106918;1276;63121;-79
2022/05/17 10:04:21;;;;;;;5.30;1.90;;;;;;;24.18;30.62;100952.65;106940;1276;70371;-81
2022/05/17 10:06:56;;;;;;;3.20;1.80;;;;;;;24.33;30.91;100952.56;106872;1276;70373;-81
2022/05/17 10:09:34;;;;;;;5.90;1.90;;;;;;;24.47;30.32;100954.16;106800;1279;64070;-80
2022/05/17 10:12:08;;;;;;;7.00;2.10;;;;;;;24.60;30.12;100947.84;106972;1279;61412;-79
2022/05/17 10:14:48;;;;;;;5.00;1.80;;;;;;;24.80;29.60;100949.45;107009;1279;61561;-79
2022/05/17 10:17:35;;;;;;;5.30;2.00;;;;;;;24.98;29.96;100946.41;107035;1279;73203;-81
2022/05/17 10:20:13;;;;;;;5.30;1.80;;;;;;;25.26;29.06;100943.11;106695;1279;61062;-79
2022/05/17 10:23:29;;;;;;;4.80;1.90;;;;;;;25.32;28.64;100939.02;106664;1279;69935;-80
2022/05/17 10:26:11;;;;;;;5.90;2.40;;;;;;;25.69;27.59;100933.95;106994;1279;62504;-78
2022/05/17 10:29:03;;;;;;;4.00;2.30;;;;;;;25.74;27.77;100927.19;106723;1279;60054;-78
2022/05/17 10:32:08;;;;;;;2.80;1.50;;;;;;;26.27;27.62;100926.36;106730;1279;59475;-77
2022/05/17 10:35:28;;;;;;;5.00;2.10;;;;;;;26.28;27.30;100927.10;106840;1277;63615;-79
2022/05/17 10:38:11;;;;;;;7.20;2.00;;;;;;;26.53;27.06;100918.61;107114;1276;71606;-80
2022/05/17 10:40:46;;;;;;;4.30;1.90;;;;;;;26.87;26.94;100912.90;106881;1277;59267;-78
2022/05/17 10:43:25;;;;;;;3.80;2.00;;;;;;;27.39;26.31;100911.34;107211;1276;62640;-82
2022/05/17 10:46:25;;;;;;;3.80;1.70;;;;;;;27.95;26.40;100913.37;107153;1276;58162;-79
2022/05/17 10:49:42;;;;;;;5.60;1.90;;;;;;;28.32;25.99;100910.06;107117;1278;59072;-81
2022/05/17 10:52:32;;;;;;;4.00;1.70;;;;;;;27.96;24.72;100909.67;107215;1277;73802;-79
2022/05/17 10:55:25;;;;;;;4.60;1.70;;;;;;;27.48;25.58;100909.52;107185;1278;61053;-79
2022/05/17 10:58:17;;;;;;;3.90;2.00;;;;;;;27.33;25.45;100909.42;107265;1276;69946;-79
2022/05/17 11:01:13;;;;;;;6.30;2.00;;;;;;;26.93;25.44;100908.13;107142;1276;71812;-81
2022/05/17 11:04:00;;;;;;;4.10;1.90;;;;;;;26.92;26.30;100908.09;107196;1276;61521;-81
2022/05/17 11:07:18;;;;;;;5.90;1.80;;;;;;;27.06;26.25;100910.71;107232;1276;59154;-81
2022/05/17 11:10:15;;;;;;;4.20;1.90;;;;;;;27.13;26.20;100907.85;107253;1276;63145;-80
2022/05/17 11:12:53;;;;;;;3.60;1.80;;;;;;;26.94;26.19;100900.92;107118;1276;61440;-78
2022/05/17 11:15:35;;;;;;;5.30;1.90;;;;;;;27.06;26.09;100904.85;107235;1276;69916;-79
2022/05/17 11:18:42;;;;;;;6.70;2.00;;;;;;;27.17;25.93;100898.88;107295;1276;63177;-80
2022/05/17 11:21:39;;;;;;;5.10;1.80;;;;;;;27.22;25.31;100896.95;107174;1276;58984;-79
2022/05/17 11:25:02;;;;;;;7.00;2.00;;;;;;;26.84;25.45;100894.77;107137;1276;59544;-82
2022/05/17 11:28:30;;;;;;;4.90;1.60;;;;;;;26.39;26.23;100896.11;106872;1276;63116;-78
2022/05/17 11:31:40;;;;;;;7.80;2.30;;;;;;;26.64;25.93;100886.23;107033;1276;72475;-80
2022/05/17 11:34:31;;;;;;;6.00;1.80;;;;;;;26.97;25.76;100882.00;107158;1276;59917;-79
2022/05/17 11:37:08;;;;;;;4.70;1.60;;;;;;;27.04;25.62;100877.65;106959;1276;62689;-79
2022/05/17 11:39:48;;;;;;;6.40;1.90;;;;;;;26.98;25.24;100876.76;106977;1276;60563;-79
2022/05/17 11:45:51;;;;;;;7.00;1.60;;;;;;;27.24;24.97;100876.51;106683;1276;75597;-79
2022/05/17 11:48:44;;;;;;;4.20;1.80;;;;;;;27.22;24.90;100869.39;106771;1279;71999;-79
2022/05/17 11:51:12;;;;;;;;;;;;;;;27.45;24.48;100865.88;107024;1276;70296;-83
2022/05/17 11:53:48;;;;;;;4.40;1.90;;;;;;;27.86;24.37;100867.80;106968;1277;63198;-80
2022/05/17 12:00:37;;;;;;;6.00;1.70;;;;;;;29.08;23.70;100867.14;107321;1269;58523;-78
2022/05/17 12:03:54;;;;;;;3.80;2.00;;;;;;;28.58;23.31;100866.27;105938;1279;63171;-78
2022/05/17 12:06:32;;;;;;;3.60;1.60;;;;;;;27.46;24.18;100865.52;106020;1277;70449;-78
2022/05/17 12:09:29;;;;;;;5.50;2.00;;;;;;;27.01;24.69;100862.04;106323;1278;60047;-79
2022/05/17 12:12:51;;;;;;;7.50;2.20;;;;;;;26.79;25.36;100855.70;106370;1278;63502;-79
2022/05/17 12:15:39;;;;;;;6.30;1.80;;;;;;;26.80;25.05;100854.45;106498;1279;60793;-79